createdAt,value
2018-12-14T00:00:01.979Z,98208.92
2018-12-14T00:00:33.601Z,98211.59
2018-12-14T00:01:05.225Z,98207.41
2018-12-14T00:01:36.845Z,98208.41
2018-12-14T00:02:08.477Z,98210.23
2018-12-14T00:02:40.097Z,98206.80
2018-12-14T00:03:11.777Z,98209.77
2018-12-14T00:03:43.398Z,98214.05
2018-12-14T00:04:15.022Z,98220.48
2018-12-14T00:04:46.648Z,98219.26
2018-12-14T00:05:18.271Z,98212.88
2018-12-14T00:05:49.897Z,98212.08
2018-12-14T00:06:21.633Z,98209.11
2018-12-14T00:06:53.258Z,98211.59
2018-12-14T00:07:24.894Z,98210.98
2018-12-14T00:07:56.516Z,98209.95
2018-12-14T00:08:28.144Z,98211.67
2018-12-14T00:08:59.766Z,98211.33
2018-12-14T00:09:31.390Z,98212.94
2018-12-14T00:10:03.010Z,98214.50
2018-12-14T00:10:34.631Z,98216.22
2018-12-14T00:11:06.262Z,98213.11
2018-12-14T00:11:37.878Z,98207.30
2018-12-14T00:12:09.517Z,98213.08
2018-12-14T00:12:41.148Z,98218.37
2018-12-14T00:13:12.770Z,98219.63
2018-12-14T00:13:44.389Z,98211.12
2018-12-14T00:14:16.019Z,98210.78
2018-12-14T00:14:47.647Z,98214.33
2018-12-14T00:15:19.271Z,98211.91
2018-12-14T00:15:50.894Z,98214.24
2018-12-14T00:16:22.518Z,98206.82
2018-12-14T00:16:54.147Z,98213.08
2018-12-14T00:17:25.771Z,98216.41
2018-12-14T00:17:57.390Z,98210.43
2018-12-14T00:18:29.037Z,98209.45
2018-12-14T00:19:00.657Z,98212.81
2018-12-14T00:19:32.282Z,98216.16
2018-12-14T00:20:03.905Z,98216.95
2018-12-14T00:20:35.530Z,98214.76
2018-12-14T00:21:07.150Z,98213.88
2018-12-14T00:21:38.771Z,98221.56
2018-12-14T00:22:10.389Z,98214.27
2018-12-14T00:22:42.009Z,98217.66
2018-12-14T00:23:13.629Z,98217.66
2018-12-14T00:23:45.273Z,98216.33
2018-12-14T00:24:16.889Z,98219.73
2018-12-14T00:24:48.516Z,98217.55
2018-12-14T00:25:20.138Z,98217.48
2018-12-14T00:25:51.802Z,98216.57
2018-12-14T00:26:23.430Z,98219.97
2018-12-14T00:26:55.062Z,98213.12
2018-12-14T00:27:26.680Z,98218.99
2018-12-14T00:27:58.301Z,98184.42
2018-12-14T00:28:29.954Z,98220.19
2018-12-14T00:29:01.625Z,98217.52
2018-12-14T00:29:33.255Z,98218.73
2018-12-14T00:30:04.884Z,98220.80
2018-12-14T00:30:36.694Z,98216.39
2018-12-14T00:31:08.323Z,98220.20
2018-12-14T00:31:39.942Z,98215.41
2018-12-14T00:32:11.561Z,98217.88
2018-12-14T00:32:43.186Z,98217.37
2018-12-14T00:33:14.810Z,98217.69
2018-12-14T00:33:46.453Z,98224.44
2018-12-14T00:34:18.082Z,98225.25
2018-12-14T00:34:49.701Z,98223.05
2018-12-14T00:35:21.326Z,98219.58
2018-12-14T00:35:52.945Z,98223.33
2018-12-14T00:36:24.566Z,98227.98
2018-12-14T00:36:56.189Z,98227.09
2018-12-14T00:37:27.810Z,98232.59
2018-12-14T00:37:59.434Z,98230.86
2018-12-14T00:38:31.060Z,98226.55
2018-12-14T00:39:02.705Z,98225.24
2018-12-14T00:39:34.334Z,98225.63
2018-12-14T00:40:05.953Z,98229.88
2018-12-14T00:40:37.573Z,98228.90
2018-12-14T00:41:09.193Z,98233.14
2018-12-14T00:41:40.817Z,98234.80
2018-12-14T00:42:12.439Z,98236.93
2018-12-14T00:42:44.067Z,98233.88
2018-12-14T00:43:15.690Z,98231.73
2018-12-14T00:43:47.345Z,98238.55
2018-12-14T00:44:18.970Z,98234.66
2018-12-14T00:44:50.594Z,98235.48
2018-12-14T00:45:22.213Z,98233.72
2018-12-14T00:45:53.837Z,98231.59
2018-12-14T00:46:25.470Z,98227.31
2018-12-14T00:46:57.098Z,98232.85
2018-12-14T00:47:28.733Z,98237.94
2018-12-14T00:48:00.362Z,98231.52
2018-12-14T00:48:31.986Z,98232.36
2018-12-14T00:49:03.642Z,98235.34
2018-12-14T00:49:35.268Z,98235.34
2018-12-14T00:50:06.894Z,98233.59
2018-12-14T00:50:38.551Z,98248.52
2018-12-14T00:51:10.179Z,98242.97
2018-12-14T00:51:41.806Z,98236.98
2018-12-14T00:52:13.430Z,98236.58
2018-12-14T00:52:45.054Z,98239.58
2018-12-14T00:53:16.673Z,98241.74
2018-12-14T00:53:48.342Z,98237.42
2018-12-14T00:54:19.962Z,98242.13
2018-12-14T00:54:51.586Z,98245.12
2018-12-14T00:55:23.214Z,98241.75
2018-12-14T00:55:54.838Z,98240.54
2018-12-14T00:56:26.452Z,98239.22
2018-12-14T00:56:58.074Z,98241.78
2018-12-14T00:57:29.697Z,98235.43
2018-12-14T00:58:01.320Z,98238.84
2018-12-14T00:58:32.973Z,98243.96
2018-12-14T00:59:04.618Z,98244.39
2018-12-14T00:59:36.262Z,98238.48
2018-12-14T01:00:07.886Z,98243.95
2018-12-14T01:00:39.514Z,98240.00
2018-12-14T01:01:11.138Z,98242.52
2018-12-14T01:01:42.764Z,98242.95
2018-12-14T01:02:20.078Z,98235.70
2018-12-14T01:02:51.707Z,98236.12
2018-12-14T01:03:23.330Z,98236.94
2018-12-14T01:03:54.977Z,98236.98
2018-12-14T01:04:26.597Z,98236.12
2018-12-14T01:04:58.226Z,98237.40
2018-12-14T01:05:29.862Z,98241.67
2018-12-14T01:06:01.490Z,98234.84
2018-12-14T01:06:33.157Z,98241.17
2018-12-14T01:07:04.883Z,98231.78
2018-12-14T01:07:36.512Z,98239.48
2018-12-14T01:08:08.133Z,98235.70
2018-12-14T01:08:39.766Z,98240.47
2018-12-14T01:09:11.420Z,98234.09
2018-12-14T01:09:43.051Z,98234.50
2018-12-14T01:10:14.810Z,98238.84
2018-12-14T01:10:46.429Z,98229.95
2018-12-14T01:11:18.152Z,98235.08
2018-12-14T01:11:49.774Z,98240.70
2018-12-14T01:12:21.394Z,98233.30
2018-12-14T01:12:53.127Z,98238.48
2018-12-14T01:13:24.854Z,98238.20
2018-12-14T01:13:56.502Z,98235.38
2018-12-14T01:14:28.153Z,98237.28
2018-12-14T01:14:59.774Z,98235.73
2018-12-14T01:15:31.398Z,98241.41
2018-12-14T01:16:03.022Z,98240.55
2018-12-14T01:16:34.646Z,98232.91
2018-12-14T01:17:06.270Z,98234.67
2018-12-14T01:17:37.893Z,98241.09
2018-12-14T01:18:09.517Z,98236.88
2018-12-14T01:18:41.142Z,98239.44
2018-12-14T01:19:12.797Z,98237.75
2018-12-14T01:19:44.418Z,98242.08
2018-12-14T01:20:16.041Z,98235.69
2018-12-14T01:20:47.698Z,98238.73
2018-12-14T01:21:19.321Z,98237.02
2018-12-14T01:21:50.951Z,98234.46
2018-12-14T01:22:22.582Z,98233.19
2018-12-14T01:22:54.215Z,98237.09
2018-12-14T01:23:25.842Z,98242.69
2018-12-14T01:23:57.466Z,98241.00
2018-12-14T01:24:29.119Z,98240.16
2018-12-14T01:25:00.742Z,98239.34
2018-12-14T01:25:32.374Z,98238.94
2018-12-14T01:26:03.998Z,98238.56
2018-12-14T01:26:35.617Z,98239.00
2018-12-14T01:27:07.238Z,98237.73
2018-12-14T01:27:38.862Z,98242.85
2018-12-14T01:28:10.482Z,98241.63
2018-12-14T01:28:42.168Z,98244.24
2018-12-14T01:29:13.819Z,98241.27
2018-12-14T01:29:45.475Z,98241.75
2018-12-14T01:30:17.102Z,98239.19
2018-12-14T01:30:48.729Z,98239.62
2018-12-14T01:31:20.354Z,98240.91
2018-12-14T01:31:51.983Z,98238.36
2018-12-14T01:32:23.611Z,98236.70
2018-12-14T01:32:55.234Z,98237.56
2018-12-14T01:33:26.855Z,98244.87
2018-12-14T01:33:58.477Z,98241.03
2018-12-14T01:34:30.130Z,98241.03
2018-12-14T01:35:01.814Z,98237.69
2018-12-14T01:35:33.433Z,98243.66
2018-12-14T01:36:05.058Z,98242.39
2018-12-14T01:36:36.686Z,98238.61
2018-12-14T01:37:08.308Z,98241.59
2018-12-14T01:37:39.929Z,98239.03
2018-12-14T01:38:11.647Z,98239.03
2018-12-14T01:38:43.273Z,98238.19
2018-12-14T01:39:14.906Z,98238.16
2018-12-14T01:39:46.558Z,98239.80
2018-12-14T01:40:18.186Z,98238.90
2018-12-14T01:40:49.811Z,98234.63
2018-12-14T01:41:21.439Z,98233.37
2018-12-14T01:41:53.061Z,98228.66
2018-12-14T01:42:24.690Z,98232.45
2018-12-14T01:42:56.309Z,98231.95
2018-12-14T01:43:27.929Z,98231.50
2018-12-14T01:43:59.558Z,98226.34
2018-12-14T01:44:31.518Z,98228.45
2018-12-14T01:45:03.438Z,98223.33
2018-12-14T01:45:35.057Z,98223.72
2018-12-14T01:46:06.681Z,98224.08
2018-12-14T01:46:38.301Z,98230.88
2018-12-14T01:47:09.922Z,98231.23
2018-12-14T01:47:41.546Z,98225.69
2018-12-14T01:48:13.728Z,98231.63
2018-12-14T01:48:44.849Z,98229.05
2018-12-14T01:49:16.474Z,98226.05
2018-12-14T01:49:48.127Z,98228.56
2018-12-14T01:50:19.754Z,98228.50
2018-12-14T01:50:51.374Z,98229.71
2018-12-14T01:51:23.003Z,98230.90
2018-12-14T01:51:54.714Z,98229.55
2018-12-14T01:52:26.341Z,98225.63
2018-12-14T01:52:57.970Z,98225.17
2018-12-14T01:53:29.589Z,98230.60
2018-12-14T01:54:01.214Z,98214.98
2018-12-14T01:54:32.886Z,98228.83
2018-12-14T01:55:04.515Z,98228.73
2018-12-14T01:55:36.141Z,98204.80
2018-12-14T01:56:07.765Z,98231.15
2018-12-14T01:56:39.394Z,98233.66
2018-12-14T01:57:11.037Z,98227.67
2018-12-14T01:57:42.657Z,98236.64
2018-12-14T01:58:14.275Z,98233.17
2018-12-14T01:58:45.898Z,98227.25
2018-12-14T01:59:17.529Z,98234.45
2018-12-14T01:59:49.177Z,98230.59
2018-12-14T02:00:20.802Z,98233.58
2018-12-14T02:00:52.427Z,98233.56
2018-12-14T02:01:24.050Z,98234.42
2018-12-14T02:01:55.679Z,98239.06
2018-12-14T02:02:27.306Z,98238.21
2018-12-14T02:02:58.931Z,98235.16
2018-12-14T02:03:30.553Z,98235.16
2018-12-14T02:04:02.174Z,98233.86
2018-12-14T02:04:34.873Z,98236.86
2018-12-14T02:05:05.491Z,98239.72
2018-12-14T02:05:37.115Z,98241.40
2018-12-14T02:06:08.741Z,98243.41
2018-12-14T02:06:40.370Z,98237.84
2018-12-14T02:07:11.994Z,98235.34
2018-12-14T02:07:43.617Z,98239.56
2018-12-14T02:08:15.237Z,98225.34
2018-12-14T02:08:46.862Z,98234.49
2018-12-14T02:09:18.503Z,98234.86
2018-12-14T02:09:50.127Z,98242.11
2018-12-14T02:10:21.751Z,98243.41
2018-12-14T02:10:53.467Z,98242.97
2018-12-14T02:11:25.095Z,98240.42
2018-12-14T02:11:56.718Z,98237.48
2018-12-14T02:12:28.342Z,98242.13
2018-12-14T02:12:59.970Z,98239.58
2018-12-14T02:13:31.590Z,98240.42
2018-12-14T02:14:03.210Z,98239.20
2018-12-14T02:14:34.833Z,98242.61
2018-12-14T02:15:06.454Z,98241.78
2018-12-14T02:15:38.143Z,98239.69
2018-12-14T02:16:09.773Z,98237.92
2018-12-14T02:16:41.403Z,98235.80
2018-12-14T02:17:13.026Z,98236.70
2018-12-14T02:17:44.647Z,98240.14
2018-12-14T02:18:16.283Z,98233.86
2018-12-14T02:18:47.911Z,98236.85
2018-12-14T02:19:19.539Z,98236.43
2018-12-14T02:19:51.208Z,98240.70
2018-12-14T02:20:22.888Z,98234.73
2018-12-14T02:20:54.510Z,98233.45
2018-12-14T02:21:26.130Z,98231.39
2018-12-14T02:21:57.756Z,98228.40
2018-12-14T02:22:29.385Z,98230.16
2018-12-14T02:23:01.001Z,98228.05
2018-12-14T02:23:32.626Z,98230.60
2018-12-14T02:24:04.250Z,98228.95
2018-12-14T02:24:35.878Z,98227.75
2018-12-14T02:25:07.531Z,98224.78
2018-12-14T02:25:39.149Z,98225.25
2018-12-14T02:26:10.773Z,98229.11
2018-12-14T02:26:42.391Z,98224.48
2018-12-14T02:27:14.022Z,98226.20
2018-12-14T02:27:45.652Z,98227.53
2018-12-14T02:28:17.283Z,98222.48
2018-12-14T02:28:48.906Z,98225.11
2018-12-14T02:29:20.530Z,98224.74
2018-12-14T02:29:52.159Z,98222.25
2018-12-14T02:30:23.811Z,98229.95
2018-12-14T02:30:55.442Z,98227.84
2018-12-14T02:31:27.066Z,98222.78
2018-12-14T02:31:58.723Z,98228.34
2018-12-14T02:32:30.354Z,98224.57
2018-12-14T02:33:01.974Z,98232.27
2018-12-14T02:33:33.607Z,98229.81
2018-12-14T02:34:05.231Z,98229.84
2018-12-14T02:34:36.858Z,98221.73
2018-12-14T02:35:08.502Z,98225.16
2018-12-14T02:35:40.123Z,98221.36
2018-12-14T02:36:11.749Z,98227.33
2018-12-14T02:36:43.375Z,98224.36
2018-12-14T02:37:15.007Z,98230.39
2018-12-14T02:37:46.629Z,98227.41
2018-12-14T02:38:18.249Z,98225.72
2018-12-14T02:38:49.869Z,98226.64
2018-12-14T02:39:21.482Z,98228.81
2018-12-14T02:39:53.110Z,98230.97
2018-12-14T02:40:24.762Z,98227.61
2018-12-14T02:40:56.402Z,98223.90
2018-12-14T02:41:28.021Z,98223.00
2018-12-14T02:41:59.647Z,98223.92
2018-12-14T02:42:31.267Z,98221.36
2018-12-14T02:43:02.896Z,98229.89
2018-12-14T02:43:34.521Z,98225.26
2018-12-14T02:44:06.150Z,98224.89
2018-12-14T02:44:37.770Z,98223.66
2018-12-14T02:45:09.422Z,98225.74
2018-12-14T02:45:41.046Z,98218.92
2018-12-14T02:46:12.674Z,98218.13
2018-12-14T02:46:44.299Z,98223.24
2018-12-14T02:47:15.918Z,98222.81
2018-12-14T02:47:47.547Z,98219.84
2018-12-14T02:48:19.170Z,98220.21
2018-12-14T02:48:50.791Z,98221.53
2018-12-14T02:49:22.416Z,98221.97
2018-12-14T02:49:54.044Z,98221.56
2018-12-14T02:50:25.690Z,98225.87
2018-12-14T02:50:57.315Z,98221.19
2018-12-14T02:51:28.940Z,98222.94
2018-12-14T02:52:00.561Z,98225.99
2018-12-14T02:52:32.182Z,98226.02
2018-12-14T02:53:03.797Z,98224.36
2018-12-14T02:53:35.424Z,98221.36
2018-12-14T02:54:07.054Z,98221.36
2018-12-14T02:54:38.696Z,98225.22
2018-12-14T02:55:10.319Z,98218.46
2018-12-14T02:55:41.970Z,98220.58
2018-12-14T02:56:13.597Z,98223.98
2018-12-14T02:56:45.218Z,98223.98
2018-12-14T02:57:16.838Z,98223.52
2018-12-14T02:57:48.461Z,98224.37
2018-12-14T02:58:20.108Z,98218.81
2018-12-14T02:58:51.731Z,98220.94
2018-12-14T02:59:23.354Z,98219.19
2018-12-14T02:59:54.977Z,98216.63
2018-12-14T03:00:26.621Z,98218.33
2018-12-14T03:00:58.250Z,98220.40
2018-12-14T03:01:29.874Z,98218.25
2018-12-14T03:02:01.491Z,98221.56
2018-12-14T03:02:33.120Z,98221.53
2018-12-14T03:03:04.753Z,98219.30
2018-12-14T03:03:36.385Z,98215.44
2018-12-14T03:04:08.022Z,98214.10
2018-12-14T03:04:39.651Z,98215.33
2018-12-14T03:05:11.277Z,98214.88
2018-12-14T03:05:42.946Z,98212.69
2018-12-14T03:06:14.575Z,98211.28
2018-12-14T03:06:46.201Z,98210.84
2018-12-14T03:07:17.826Z,98212.92
2018-12-14T03:07:49.452Z,98210.34
2018-12-14T03:08:21.070Z,98212.90
2018-12-14T03:08:52.686Z,98212.05
2018-12-14T03:09:24.309Z,98198.23
2018-12-14T03:09:55.931Z,98211.20
2018-12-14T03:10:27.598Z,98207.41
2018-12-14T03:10:59.226Z,98207.84
2018-12-14T03:11:30.850Z,98211.33
2018-12-14T03:12:02.474Z,98207.48
2018-12-14T03:12:34.100Z,98210.92
2018-12-14T03:13:05.746Z,98213.97
2018-12-14T03:13:37.383Z,98207.25
2018-12-14T03:14:09.011Z,98215.75
2018-12-14T03:14:40.649Z,98210.25
2018-12-14T03:15:12.283Z,98215.81
2018-12-14T03:15:43.946Z,98215.42
2018-12-14T03:16:15.575Z,98213.25
2018-12-14T03:16:47.213Z,98217.14
2018-12-14T03:17:18.836Z,98208.27
2018-12-14T03:17:50.463Z,98208.66
2018-12-14T03:18:22.081Z,98212.11
2018-12-14T03:18:53.702Z,98208.74
2018-12-14T03:19:25.331Z,98210.47
2018-12-14T03:19:56.962Z,98210.09
2018-12-14T03:20:28.641Z,98209.72
2018-12-14T03:21:00.265Z,98210.64
2018-12-14T03:21:31.887Z,98208.09
2018-12-14T03:22:03.526Z,98213.20
2018-12-14T03:22:35.154Z,98206.39
2018-12-14T03:23:06.778Z,98213.22
2018-12-14T03:23:38.422Z,98213.62
2018-12-14T03:24:10.048Z,98207.66
2018-12-14T03:24:41.671Z,98205.48
2018-12-14T03:25:13.295Z,98210.16
2018-12-14T03:25:44.954Z,98215.29
2018-12-14T03:26:16.573Z,98213.20
2018-12-14T03:26:48.194Z,98212.36
2018-12-14T03:27:19.818Z,98210.64
2018-12-14T03:27:51.438Z,98208.45
2018-12-14T03:28:23.060Z,98216.92
2018-12-14T03:28:54.686Z,98212.21
2018-12-14T03:29:26.325Z,98217.69
2018-12-14T03:29:57.946Z,98216.80
2018-12-14T03:30:29.569Z,98216.80
2018-12-14T03:31:01.232Z,98212.94
2018-12-14T03:31:32.854Z,98214.16
2018-12-14T03:32:04.479Z,98213.23
2018-12-14T03:32:36.107Z,98216.15
2018-12-14T03:33:07.737Z,98212.69
2018-12-14T03:33:39.401Z,98217.31
2018-12-14T03:34:11.022Z,98218.14
2018-12-14T03:34:42.642Z,98216.81
2018-12-14T03:35:14.279Z,98215.09
2018-12-14T03:35:45.930Z,98217.16
2018-12-14T03:36:17.558Z,98212.90
2018-12-14T03:36:49.187Z,98218.80
2018-12-14T03:37:20.814Z,98214.05
2018-12-14T03:37:52.455Z,98216.59
2018-12-14T03:38:24.079Z,98209.34
2018-12-14T03:38:55.805Z,98210.98
2018-12-14T03:39:27.436Z,98211.34
2018-12-14T03:39:59.137Z,98213.06
2018-12-14T03:40:30.821Z,98212.58
2018-12-14T03:41:02.587Z,98212.14
2018-12-14T03:41:34.210Z,98210.42
2018-12-14T03:42:05.834Z,98209.09
2018-12-14T03:42:37.462Z,98206.08
2018-12-14T03:43:09.097Z,98208.58
2018-12-14T03:43:40.792Z,98216.23
2018-12-14T03:44:12.430Z,98206.84
2018-12-14T03:44:44.061Z,98208.03
2018-12-14T03:45:15.687Z,98207.17
2018-12-14T03:45:47.342Z,98215.25
2018-12-14T03:46:18.961Z,98210.55
2018-12-14T03:46:50.582Z,98209.63
2018-12-14T03:47:22.206Z,98210.05
2018-12-14T03:47:53.825Z,98210.46
2018-12-14T03:48:25.447Z,98207.47
2018-12-14T03:48:57.076Z,98210.45
2018-12-14T03:49:28.718Z,98212.97
2018-12-14T03:50:00.351Z,98212.47
2018-12-14T03:50:31.981Z,98211.18
2018-12-14T03:51:03.630Z,98209.46
2018-12-14T03:51:35.253Z,98215.39
2018-12-14T03:52:06.876Z,98210.69
2018-12-14T03:52:38.505Z,98212.37
2018-12-14T03:53:10.140Z,98211.03
2018-12-14T03:53:41.766Z,98213.59
2018-12-14T03:54:13.390Z,98213.08
2018-12-14T03:54:45.014Z,98213.03
2018-12-14T03:55:16.646Z,98210.45
2018-12-14T03:55:48.280Z,98213.31
2018-12-14T03:56:19.907Z,98208.97
2018-12-14T03:56:51.526Z,98209.44
2018-12-14T03:57:23.147Z,98208.58
2018-12-14T03:57:54.771Z,98208.19
2018-12-14T03:58:26.398Z,98211.60
2018-12-14T03:58:58.021Z,98212.92
2018-12-14T03:59:29.650Z,98211.18
2018-12-14T04:00:01.282Z,98220.61
2018-12-14T04:00:32.918Z,98212.52
2018-12-14T04:01:04.561Z,98209.12
2018-12-14T04:01:36.190Z,98210.45
2018-12-14T04:02:07.821Z,98209.19
2018-12-14T04:02:39.441Z,98207.03
2018-12-14T04:03:11.066Z,98205.32
2018-12-14T04:03:42.689Z,98220.22
2018-12-14T04:04:14.312Z,98206.62
2018-12-14T04:04:45.951Z,98207.48
2018-12-14T04:05:17.577Z,98211.31
2018-12-14T04:05:49.198Z,98215.59
2018-12-14T04:06:20.818Z,98211.80
2018-12-14T04:06:52.433Z,98210.95
2018-12-14T04:07:24.058Z,98210.95
2018-12-14T04:07:55.687Z,98214.35
2018-12-14T04:08:27.313Z,98212.66
2018-12-14T04:08:58.934Z,98212.25
2018-12-14T04:09:30.558Z,98209.73
2018-12-14T04:10:02.200Z,98214.39
2018-12-14T04:10:33.821Z,98212.25
2018-12-14T04:11:05.471Z,98207.55
2018-12-14T04:11:37.094Z,98219.58
2018-12-14T04:12:08.717Z,98215.44
2018-12-14T04:12:41.871Z,98212.02
2018-12-14T04:13:12.030Z,98213.75
2018-12-14T04:13:43.660Z,98209.11
2018-12-14T04:14:15.290Z,98209.18
2018-12-14T04:14:46.930Z,98213.09
2018-12-14T04:15:18.562Z,98212.66
2018-12-14T04:15:50.182Z,98213.11
2018-12-14T04:16:21.811Z,98214.88
2018-12-14T04:16:53.435Z,98210.24
2018-12-14T04:17:25.059Z,98218.36
2018-12-14T04:17:56.683Z,98213.67
2018-12-14T04:18:28.315Z,98212.87
2018-12-14T04:18:59.953Z,98217.59
2018-12-14T04:19:31.599Z,98218.90
2018-12-14T04:20:03.222Z,98219.39
2018-12-14T04:20:34.854Z,98218.59
2018-12-14T04:21:06.525Z,98216.89
2018-12-14T04:21:38.146Z,98221.17
2018-12-14T04:22:09.788Z,98216.97
2018-12-14T04:22:41.410Z,98218.69
2018-12-14T04:23:13.032Z,98221.22
2018-12-14T04:23:44.720Z,98224.64
2018-12-14T04:24:16.347Z,98219.52
2018-12-14T04:24:48.042Z,98225.55
2018-12-14T04:25:19.673Z,98228.55
2018-12-14T04:25:51.302Z,98220.02
2018-12-14T04:26:22.954Z,98225.58
2018-12-14T04:26:54.583Z,98224.41
2018-12-14T04:27:26.215Z,98227.84
2018-12-14T04:27:57.839Z,98223.22
2018-12-14T04:28:29.457Z,98227.13
2018-12-14T04:29:01.082Z,98224.15
2018-12-14T04:29:32.725Z,98229.69
2018-12-14T04:30:04.357Z,98223.39
2018-12-14T04:30:35.986Z,98227.98
2018-12-14T04:31:07.621Z,98233.95
2018-12-14T04:31:39.268Z,98229.68
2018-12-14T04:32:10.885Z,98230.54
2018-12-14T04:32:42.508Z,98231.44
2018-12-14T04:33:14.138Z,98229.69
2018-12-14T04:33:45.758Z,98225.48
2018-12-14T04:34:17.379Z,98230.17
2018-12-14T04:34:49.001Z,98227.73
2018-12-14T04:35:20.630Z,98227.69
2018-12-14T04:35:52.262Z,98232.37
2018-12-14T04:36:23.917Z,98227.30
2018-12-14T04:36:55.543Z,98224.75
2018-12-14T04:37:27.166Z,98228.61
2018-12-14T04:37:58.785Z,98227.39
2018-12-14T04:38:30.409Z,98229.94
2018-12-14T04:39:02.039Z,98232.45
2018-12-14T04:39:33.668Z,98230.73
2018-12-14T04:40:05.308Z,98229.88
2018-12-14T04:40:36.940Z,98232.44
2018-12-14T04:41:08.568Z,98226.91
2018-12-14T04:41:40.222Z,98235.00
2018-12-14T04:42:11.842Z,98230.73
2018-12-14T04:42:48.842Z,98230.31
2018-12-14T04:43:15.171Z,98223.95
2018-12-14T04:43:46.798Z,98234.20
2018-12-14T04:44:18.486Z,98226.95
2018-12-14T04:44:50.111Z,98224.46
2018-12-14T04:45:21.742Z,98235.98
2018-12-14T04:45:53.366Z,98228.43
2018-12-14T04:46:25.039Z,98233.54
2018-12-14T04:46:56.657Z,98236.11
2018-12-14T04:47:28.278Z,98236.11
2018-12-14T04:47:59.893Z,98233.13
2018-12-14T04:48:31.514Z,98228.44
2018-12-14T04:49:03.138Z,98235.73
2018-12-14T04:49:34.761Z,98231.05
2018-12-14T04:50:06.390Z,98236.17
2018-12-14T04:50:38.017Z,98233.13
2018-12-14T04:51:09.641Z,98234.83
2018-12-14T04:51:41.295Z,98236.91
2018-12-14T04:52:12.932Z,98235.55
2018-12-14T04:52:44.562Z,98237.62
2018-12-14T04:53:16.205Z,98239.73
2018-12-14T04:53:47.855Z,98239.64
2018-12-14T04:54:19.483Z,98239.19
2018-12-14T04:54:51.110Z,98242.05
2018-12-14T04:55:22.733Z,98240.70
2018-12-14T04:55:54.362Z,98246.17
2018-12-14T04:56:25.990Z,98241.84
2018-12-14T04:56:57.638Z,98241.42
2018-12-14T04:57:29.271Z,98243.92
2018-12-14T04:58:00.891Z,98237.08
2018-12-14T04:58:32.603Z,98241.22
2018-12-14T04:59:04.230Z,98240.73
2018-12-14T04:59:35.854Z,98240.72
2018-12-14T05:00:07.481Z,98241.94
2018-12-14T05:00:39.112Z,98241.08
2018-12-14T05:01:10.730Z,98241.02
2018-12-14T05:01:42.379Z,98236.75
2018-12-14T05:02:14.006Z,98244.41
2018-12-14T05:02:45.688Z,98240.61
2018-12-14T05:03:17.319Z,98239.34
2018-12-14T05:03:48.946Z,98238.00
2018-12-14T05:04:20.569Z,98240.12
2018-12-14T05:04:52.190Z,98240.91
2018-12-14T05:05:23.822Z,98245.19
2018-12-14T05:05:55.444Z,98240.05
2018-12-14T05:06:27.072Z,98239.19
2018-12-14T05:06:58.721Z,98239.98
2018-12-14T05:07:30.357Z,98245.09
2018-12-14T05:08:01.982Z,98245.10
2018-12-14T05:08:33.607Z,98242.11
2018-12-14T05:09:05.237Z,98236.98
2018-12-14T05:09:36.861Z,98236.56
2018-12-14T05:10:08.501Z,98239.13
2018-12-14T05:10:40.122Z,98241.55
2018-12-14T05:11:11.755Z,98236.01
2018-12-14T05:11:43.427Z,98238.56
2018-12-14T05:12:15.051Z,98239.84
2018-12-14T05:12:46.678Z,98244.91
2018-12-14T05:13:18.391Z,98238.98
2018-12-14T05:13:50.019Z,98246.24
2018-12-14T05:14:21.648Z,98235.58
2018-12-14T05:14:53.280Z,98238.13
2018-12-14T05:15:24.907Z,98236.42
2018-12-14T05:15:56.529Z,98238.56
2018-12-14T05:16:28.158Z,98235.56
2018-12-14T05:16:59.842Z,98236.80
2018-12-14T05:17:31.477Z,98234.30
2018-12-14T05:18:03.098Z,98243.62
2018-12-14T05:18:34.723Z,98239.35
2018-12-14T05:19:06.353Z,98236.36
2018-12-14T05:19:37.974Z,98240.64
2018-12-14T05:20:09.598Z,98240.70
2018-12-14T05:20:41.285Z,98239.85
2018-12-14T05:21:12.909Z,98238.58
2018-12-14T05:21:44.540Z,98240.33
2018-12-14T05:22:16.189Z,98239.06
2018-12-14T05:22:47.810Z,98245.88
2018-12-14T05:23:19.438Z,98240.34
2018-12-14T05:23:51.066Z,98241.62
2018-12-14T05:24:22.688Z,98242.53
2018-12-14T05:24:54.306Z,98239.48
2018-12-14T05:25:25.930Z,98242.06
2018-12-14T05:25:57.554Z,98237.85
2018-12-14T05:26:29.174Z,98233.66
2018-12-14T05:27:00.866Z,98235.86
2018-12-14T05:27:32.489Z,98234.14
2018-12-14T05:28:04.110Z,98229.04
2018-12-14T05:28:35.731Z,98233.31
2018-12-14T05:29:07.415Z,98236.72
2018-12-14T05:29:39.085Z,98235.06
2018-12-14T05:30:10.719Z,98240.19
2018-12-14T05:30:42.337Z,98234.24
2018-12-14T05:31:13.962Z,98234.67
2018-12-14T05:31:45.582Z,98239.78
2018-12-14T05:32:17.230Z,98235.91
2018-12-14T05:32:48.859Z,98231.22
2018-12-14T05:33:20.487Z,98235.95
2018-12-14T05:33:52.111Z,98214.48
2018-12-14T05:34:25.838Z,98237.69
2018-12-14T05:34:57.751Z,98231.32
2018-12-14T05:35:29.966Z,98236.03
2018-12-14T05:36:01.619Z,98232.24
2018-12-14T05:36:33.251Z,98230.98
2018-12-14T05:37:04.910Z,98228.44
2018-12-14T05:37:36.536Z,98236.59
2018-12-14T05:38:08.157Z,98235.32
2018-12-14T05:38:39.786Z,98235.80
2018-12-14T05:39:11.410Z,98236.25
2018-12-14T05:39:43.039Z,98234.59
2018-12-14T05:40:14.661Z,98219.92
2018-12-14T05:40:46.282Z,98240.58
2018-12-14T05:41:17.992Z,98237.20
2018-12-14T05:41:49.614Z,98241.92
2018-12-14T05:42:21.263Z,98239.86
2018-12-14T05:42:52.884Z,98239.48
2018-12-14T05:43:24.510Z,98238.64
2018-12-14T05:43:56.130Z,98240.77
2018-12-14T05:44:27.750Z,98242.46
2018-12-14T05:44:59.371Z,98237.30
2018-12-14T05:45:30.989Z,98241.55
2018-12-14T05:46:02.618Z,98235.17
2018-12-14T05:46:34.241Z,98240.77
2018-12-14T05:47:05.918Z,98242.53
2018-12-14T05:47:37.537Z,98242.54
2018-12-14T05:48:09.158Z,98242.17
2018-12-14T05:48:40.785Z,98222.81
2018-12-14T05:49:12.429Z,98248.09
2018-12-14T05:49:44.049Z,98245.10
2018-12-14T05:50:15.678Z,98243.02
2018-12-14T05:50:47.297Z,98243.02
2018-12-14T05:51:18.922Z,98248.09
2018-12-14T05:51:50.542Z,98248.09
2018-12-14T05:52:22.194Z,98247.67
2018-12-14T05:52:53.813Z,98250.66
2018-12-14T05:53:25.470Z,98249.86
2018-12-14T05:53:57.098Z,98252.86
2018-12-14T05:54:28.721Z,98252.42
2018-12-14T05:55:00.354Z,98251.64
2018-12-14T05:55:31.973Z,98252.47
2018-12-14T05:56:03.598Z,98250.79
2018-12-14T05:56:35.217Z,98257.17
2018-12-14T05:57:06.843Z,98255.05
2018-12-14T05:57:38.486Z,98257.23
2018-12-14T05:58:10.106Z,98257.29
2018-12-14T05:58:41.735Z,98253.47
2018-12-14T05:59:13.353Z,98257.73
2018-12-14T05:59:44.970Z,98258.22
2018-12-14T06:00:16.590Z,98257.37
2018-12-14T06:00:48.209Z,98254.38
2018-12-14T06:01:19.829Z,98257.84
2018-12-14T06:01:51.458Z,98261.27
2018-12-14T06:02:23.112Z,98255.73
2018-12-14T06:02:54.730Z,98256.59
2018-12-14T06:03:26.358Z,98259.49
2018-12-14T06:03:57.986Z,98261.58
2018-12-14T06:04:29.609Z,98261.63
2018-12-14T06:05:01.231Z,98259.01
2018-12-14T06:05:32.858Z,98264.55
2018-12-14T06:06:04.477Z,98259.00
2018-12-14T06:06:36.141Z,98261.07
2018-12-14T06:07:07.762Z,98259.37
2018-12-14T06:07:39.382Z,98261.51
2018-12-14T06:08:11.010Z,98264.49
2018-12-14T06:08:42.638Z,98264.91
2018-12-14T06:09:14.886Z,98264.05
2018-12-14T06:09:45.954Z,98245.50
2018-12-14T06:10:17.582Z,98266.56
2018-12-14T06:10:49.201Z,98263.14
2018-12-14T06:11:20.833Z,98261.87